Garrison, Iowa
Current Conditions -  °F | °C
As of 1:55 PM on Sunday 23 Nov 2014 (Local Time) from KVTI Reporting Station
Light Rain Light Rain  
Wind Chill: 50°   Ceiling: 500
Heat Index: 50°   Visibility: 7mi
Dew Point: 49°   Wind: 0mph
Humidity: 95%   Direction: NA
Pressure: 29.38"   Gusts: NA
Location:  42.14°N, 92.14°W
Report Text: KVTI 231955Z AUTO 00000KT 7SM -RA OVC005 10/09 A2938 RMK AO2 P0003 T01010093
Loading
Personal Weather Stations






























Interactive Weather Map New forecast layout! Learn more

10-Day Weather Forecast

Advertisements
Track Severe Weather on mobile